Timeline UpdatesTrip UpdatesNews PostsPvt Posts♥♥Travel TipsAdmin PostsConv PostsFollowed PostsChat RequestsBlog PostsPNR Posts

Disclaimer
Search
 
 
Fri Dec 19, 2014 07:47:51 ISTHomeTrainsΣChainsAtlasPNRForumGalleryNewsFAQTripsMembersLoginFeedback
PNR Super Search

Ticket PNR Status Inquiry - PNR: 641-xxxxxxx (E-Ticket)

OLD STATUS

Status Last Updated on: Jun 08 2012 (12:46AM) IST

Date of Journey: Tue Jun 05, 2012   Class: Sleeper - SL   (Total Seats available for this Class/Quota: Avbl 172)
Passenger 1: S3,43/Coach Position:7 (Booking Status: W/L 10,CK)
Passenger 2: S3,44/Coach Position:7 (Booking Status: W/L 11,CK)
Chart PREPARED

Mithila Express/13021

Travel Time: 15h 3m    37 halts    Distance: 643 km    Avg Speed: 42 km/hr
Type: Mail/Express
Zone: ER/Eastern
Departs @ 15:45 (Avg 3m late)
Platform# 8
SMTWTFS
Kolkata Howrah Junction/HWH 
Arrives @ 06:48 +1 night (Avg 55m late)
Platform# 1
SMTWTFS
Bapudham Motihari/BMKI 

37 halts. 138 intermediate Stations between Kolkata Howrah Junction and Bapudham Motihari

Show ALL intermediate Stations  Show Old Time-Table

#TrkCodeStation NameX/OArrivesAvgDepartsAvgHaltPFDay#KmSpeedElevZoneAddress
1/==/HWHKolkata Howrah Junction (23)»  -15:45+3810.05110mERHowrah 711101, West Bengal
2/==/SRPSerampore (4)  16:08+716:09+121m2119.51411mERdist - hooghly, West Bengal
3/==/SHESeoraphuli Junction (6)  16:20+716:25+55m4122.17113mERBaidyabati, West Bengal
4/==/CGRChandan Nagar (3)  16:34+716:35+81m1132.73416mERDist -HOOGHLY - 712136, West Bengal
5/==/BDCBandel Junction (7)  16:47+816:52+85m2139.55214mERdist - HOOGHLY, West Bengal
6/==/BWNBarddhaman Junction (8)  18:10-118:14+24m21106.78734mERDist - Barddhaman, West Bengal
7/==/PANPanagarh (4)  18:47+918:48+101m21154.75870mERKaksa, West Bengal
8/==/DGRDurgapur (5)XO  19:04+719:09+65m--1170.36671mERDurgapur, West Bengal
9/==/OYRWaria (4)  19:17+819:18+91m--1179.14978mERDurgapur, West Bengal
10/==/UDLAndal Junction (6)X  19:28+419:30+42m11187.35586mERAndal, West Bengal
11/==/RNGRaniGanj (4)  19:38+719:39+71m41194.64592mERRaniganj, West Bengal
12/==/ASNAsansol Junction (7)X  20:03+520:08+65m31212.744113mERDist - Bardhaman, West Bengal
13/==/STNSitarampur Junction (5)  20:20+1220:22+132m--1221.564139mERG T Rd Before Asansol, West Bengal
14/==/RNPRRupnarayanpur (3)X  20:33+1820:34+191m--1233.230191mERChittaranjan, West Bengal
15/==/CRJChittaranjan (3)  20:43+1420:46+133m31237.861182mERMihijam, Jharkhand
16/==/JMTJamtara (2)X  21:00+1321:01+141m11252.160201mERJamtara, Jharkhand
17/==/VDSVidyasagar (2)X  21:19+1521:20+161m--1270.063250mERJamtara, Jharkhand
18/==/MDPMadhupur Junction (4)X  21:43+1321:47+134m21294.273254mER06432-224478, Jharkhand
19/==/JSMEJasidih Junction (5)X  22:11+1422:16+135m31323.241271mERJasidih, Jharkhand
20/==/JAJJhajha (4)X  23:21+923:26+95m--1367.482143mECRJhajha, Bihar
21/==/KIULKiul Junction (5)X  00:05+2100:10+195m--2420.62753mECRDist. Lakhisarai, Bihar
22/==/BJUBarauni Junction (9)X01:38+2502:00+2722m82459.93749mECRBegusarai, Bihar
23/==/TGATeghra (3)  02:11 02:12+3302:13+352 1m--2467.24148mECRBegusarai, Bihar
24/--/BCABachwara Junction (3)X  02:24 02:26+3302:26 02:27+352 1m--2476.15149mECRBegusarai, Bihar
25/==/DSSDalsingh Sarai (2)  02:38 02:40+3602:40 02:41+372 1m12487.16551mECR06278-221238, Bihar
26/==/UJPUjiarpur (2)  02:52 02:54+3802:54 02:55+402 1m--2501.32751mECRSamastipur, Bihar
27/==/SPJSamastipur Junction (9)  03:15+2703:25+2610m--2510.33155mECRSamastipur, Bihar
28/==/KPGMKarpurigram (3)  03:36 03:37+3403:38+362 1m--2516.65551mECRState Highway 49, Bihar
29/==/KRBPKhudiram B Pusa (2)  03:45 03:46+3503:47+362 1m--2524.04952mECRDistt. Samastipur, Bihar
30/==/DUBHDubaha (2)X  03:55 03:56+3603:57+362 1m--2531.34555mECRDubha Station, Bihar
31/==/DOLDholi (2)X  04:00 04:05+3504:06+366 1m--2537.35155mECRDistt. Muzaffarpur, Bihar
32/==/SIHOSiho (2)X  04:13 04:14+3604:15+372 1m12544.25853mECRNational Highway 28, Bihar
33/==/SLTSilaut (2)  04:22 04:23+3704:24+382 1m--2552.04357mECRMuzaffarpur, Bihar
34/==/NRPANarayanpur Anant (3)X  04:31 04:32+3804:33+392 1m--2557.61156mECRMuzaffarpur, Bihar
35/==/MFPMuzaffarpur Junction (6)  05:00+2405:15+2915m32562.57857mECRMuzaffarpur, Bihar
36|--|MTRMotipur (1)  05:35+5305:37+532m12588.67362mECRRatanpura, Bihar
37|--|MAIMehsi (1)  05:48+5905:50+592m12601.95264mECRMehsi, Bihar
38|--|CAAChakia (1)  06:00+1:0306:02+1:052m12610.64266mECRChakia, Bihar
39|--|BMKIBapudham Motihari (2)•X  06:47 06:48+5506:52 06:54+585 6m12642.75972mECRMotihari, Bihar
40|--|SGLSagauli (3)X07:15+1:1107:40+1:1225m12663.26973mECRSugauli, Bihar
41|--|RGHRamgarhwa (1)  07:53+1:2207:55+1:222m12678.32475mECRRamgarhwa, Bihar
42|--|RXLRaxaul Junction (5)  08:30+57-12692.4-88mECREast Champaran, Bihar
Scroll to Top
Scroll to Bottom


Go to Mobile site